createdAt,value
2022-08-29T11:38:56.598Z,4.05
2022-08-29T11:41:39.208Z,3.95
2022-08-29T11:44:16.702Z,3.28
2022-08-29T11:46:56.090Z,2.90
2022-08-29T11:49:42.666Z,2.95
2022-08-29T11:52:17.748Z,2.73
2022-08-29T11:55:11.431Z,2.67
2022-08-29T11:57:54.015Z,2.50
2022-08-29T12:00:31.014Z,2.50
2022-08-29T12:03:04.405Z,2.20
2022-08-29T12:05:55.775Z,2.70
2022-08-29T12:08:37.855Z,2.50
2022-08-29T12:11:09.463Z,2.60
2022-08-29T12:13:45.625Z,3.10
2022-08-29T12:18:51.099Z,2.38
2022-08-29T12:21:36.755Z,2.15
2022-08-29T12:24:08.126Z,2.20
2022-08-29T12:26:41.268Z,2.10
2022-08-29T12:29:20.192Z,2.40
2022-08-29T12:32:24.438Z,2.08
2022-08-29T12:35:21.605Z,1.90
2022-08-29T17:17:44.741Z,1.58
2022-08-29T17:20:17.909Z,1.65
2022-08-29T17:22:47.857Z,1.80
2022-08-29T17:25:17.796Z,1.92
2022-08-29T17:28:01.001Z,1.60
2022-08-29T17:30:39.021Z,1.52
2022-08-29T17:33:10.141Z,1.42
2022-08-29T17:35:51.321Z,1.50
2022-08-29T17:38:21.875Z,1.70
2022-08-29T17:40:52.430Z,1.52
2022-08-29T17:43:22.595Z,1.40
2022-08-29T17:45:52.568Z,1.60
2022-08-29T17:48:22.886Z,1.50
2022-08-29T17:50:53.018Z,1.40
2022-08-29T17:53:23.121Z,1.38
2022-08-29T17:55:53.110Z,1.50
2022-08-29T17:58:24.517Z,1.35
2022-08-29T18:00:56.154Z,1.50
2022-08-29T18:03:26.506Z,1.30
2022-08-29T18:05:56.470Z,1.40
2022-08-29T18:08:26.712Z,1.30
2022-08-29T18:13:45.796Z,1.40
2022-08-29T18:16:16.454Z,1.10
2022-08-29T18:18:49.199Z,1.25
2022-08-29T18:21:19.486Z,1.00
2022-08-29T18:23:52.929Z,1.17
2022-08-29T18:26:23.003Z,1.10
2022-08-29T18:28:53.131Z,1.10
2022-08-29T18:31:23.231Z,1.67
2022-08-29T18:34:01.298Z,0.95
2022-08-29T18:36:36.264Z,1.65
2022-08-29T18:39:37.298Z,1.00
2022-08-29T18:42:20.331Z,1.17
2022-08-29T18:44:57.771Z,0.90
2022-08-29T18:52:19.574Z,1.25
2022-08-29T18:55:15.791Z,1.10
2022-08-29T19:00:19.530Z,1.17
2022-08-29T19:02:50.110Z,1.10
2022-08-29T19:05:40.075Z,1.00
2022-08-29T19:08:11.946Z,1.77
2022-08-29T19:10:41.937Z,0.90
2022-08-29T19:13:12.166Z,1.10
2022-08-29T19:15:42.746Z,1.35
2022-08-29T19:18:37.981Z,1.08
2022-08-29T19:21:08.215Z,1.42
2022-08-29T19:23:46.034Z,1.42
2022-08-29T19:26:20.860Z,1.50
2022-08-29T19:28:53.044Z,1.25
2022-08-29T19:31:25.482Z,1.10
2022-08-29T19:33:55.497Z,1.10
2022-08-29T19:36:32.556Z,1.40
2022-08-29T19:39:02.627Z,1.20
2022-08-29T19:41:32.796Z,1.20
2022-08-29T19:44:03.356Z,1.52
2022-08-29T19:46:34.403Z,1.70
2022-08-29T23:05:10.094Z,0.82
2022-08-29T23:07:40.353Z,0.70
2022-08-29T23:10:11.100Z,0.57
2022-08-29T23:12:41.739Z,0.60
2022-08-29T23:15:14.341Z,0.68
2022-08-29T23:17:44.724Z,0.60
2022-08-29T23:20:15.934Z,0.52
2022-08-29T23:22:49.536Z,0.50
2022-08-29T23:25:19.974Z,0.50
2022-08-29T23:27:49.858Z,0.63
2022-08-29T23:30:20.028Z,0.60
2022-08-29T23:32:49.981Z,0.50
2022-08-29T23:35:20.271Z,0.70
2022-08-29T23:37:50.214Z,0.50
2022-08-29T23:40:20.731Z,0.40
2022-08-29T23:42:53.201Z,0.73
2022-08-29T23:45:23.512Z,0.50
2022-08-29T23:47:53.970Z,0.60
2022-08-29T23:50:23.945Z,0.70
2022-08-29T23:52:53.884Z,0.63
2022-08-29T23:55:23.957Z,0.75
2022-08-29T23:57:55.750Z,0.57
